createdAt,value
2018-05-06T00:00:43.887Z,15.20
2018-05-06T00:03:20.421Z,15.20
2018-05-06T00:05:49.540Z,15.20
2018-05-06T00:08:19.489Z,15.20
2018-05-06T00:10:48.213Z,15.10
2018-05-06T00:13:25.180Z,15.00
2018-05-06T00:15:54.218Z,15.00
2018-05-06T00:18:23.576Z,15.00
2018-05-06T00:20:52.433Z,15.00
2018-05-06T00:23:25.426Z,14.90
2018-05-06T00:25:56.129Z,14.80
2018-05-06T00:28:28.955Z,14.80
2018-05-06T00:30:59.786Z,14.80
2018-05-06T00:33:29.809Z,14.80
2018-05-06T00:35:58.901Z,14.70
2018-05-06T00:38:32.733Z,14.70
2018-05-06T00:41:02.205Z,14.70
2018-05-06T00:43:35.557Z,14.70
2018-05-06T00:46:05.600Z,14.60
2018-05-06T00:48:37.965Z,14.60
2018-05-06T00:51:06.899Z,14.60
2018-05-06T00:53:43.927Z,14.60
2018-05-06T00:56:12.714Z,14.50
2018-05-06T00:58:42.462Z,14.50
2018-05-06T01:01:11.304Z,14.50
2018-05-06T01:03:48.305Z,14.50
2018-05-06T01:06:17.369Z,14.50
2018-05-06T01:08:47.563Z,14.40
2018-05-06T01:11:16.303Z,14.40
2018-05-06T01:13:53.121Z,14.40
2018-05-06T01:16:22.254Z,14.40
2018-05-06T01:18:52.083Z,14.40
2018-05-06T01:21:20.834Z,14.40
2018-05-06T01:23:57.315Z,14.40
2018-05-06T01:26:26.877Z,14.40
2018-05-06T01:28:57.851Z,14.40
2018-05-06T01:31:26.985Z,14.30
2018-05-06T01:34:02.857Z,14.30
2018-05-06T01:36:32.368Z,14.30
2018-05-06T01:39:02.816Z,14.30
2018-05-06T01:41:31.585Z,14.30
2018-05-06T01:44:07.976Z,14.40
2018-05-06T01:46:36.795Z,14.30
2018-05-06T01:49:09.168Z,14.20
2018-05-06T01:51:38.973Z,14.20
2018-05-06T01:54:11.667Z,14.20
2018-05-06T01:56:40.422Z,14.20
2018-05-06T01:59:17.905Z,14.20
2018-05-06T02:01:46.668Z,14.20
2018-05-06T02:04:16.439Z,14.20
2018-05-06T02:06:45.203Z,14.20
2018-05-06T02:09:21.956Z,14.20
2018-05-06T02:11:50.659Z,14.10
2018-05-06T02:14:20.806Z,14.10
2018-05-06T02:16:49.874Z,14.10
2018-05-06T02:19:22.193Z,14.00
2018-05-06T02:21:51.720Z,14.00
2018-05-06T02:24:24.386Z,13.90
2018-05-06T02:26:53.115Z,14.00
2018-05-06T02:29:28.888Z,13.90
2018-05-06T02:31:57.724Z,13.90
2018-05-06T02:34:28.478Z,13.80
2018-05-06T02:36:57.475Z,13.80
2018-05-06T02:39:30.437Z,13.80
2018-05-06T02:41:59.131Z,13.80
2018-05-06T02:44:32.686Z,13.70
2018-05-06T02:47:02.401Z,13.70
2018-05-06T02:49:39.172Z,13.60
2018-05-06T02:52:08.037Z,13.60
2018-05-06T02:54:37.515Z,13.60
2018-05-06T02:57:06.256Z,13.60
2018-05-06T02:59:39.095Z,13.60
2018-05-06T03:02:08.032Z,13.60
2018-05-06T03:04:44.532Z,13.50
2018-05-06T03:07:13.399Z,13.50
2018-05-06T03:09:44.005Z,13.50
2018-05-06T03:12:13.864Z,13.40
2018-05-06T03:14:49.981Z,13.40
2018-05-06T03:17:19.821Z,13.30
2018-05-06T03:19:48.753Z,13.30
2018-05-06T03:22:17.445Z,13.30
2018-05-06T03:24:53.894Z,13.30
2018-05-06T03:27:22.693Z,13.30
2018-05-06T03:29:55.233Z,13.30
2018-05-06T03:32:24.247Z,13.20
2018-05-06T03:34:56.837Z,13.20
2018-05-06T03:37:25.588Z,13.20
2018-05-06T03:39:58.432Z,13.10
2018-05-06T03:42:27.895Z,13.10
2018-05-06T03:45:04.495Z,13.10
2018-05-06T03:47:33.278Z,13.10
2018-05-06T03:50:03.766Z,13.00
2018-05-06T03:52:32.580Z,13.00
2018-05-06T03:55:06.596Z,13.00
2018-05-06T03:57:46.381Z,13.00
2018-05-06T04:00:50.063Z,13.00
2018-05-06T04:03:18.805Z,12.90
2018-05-06T04:05:47.863Z,12.90
2018-05-06T04:08:16.615Z,13.00
2018-05-06T04:10:45.520Z,13.00
2018-05-06T04:13:15.901Z,12.90
2018-05-06T04:15:44.628Z,12.90
2018-05-06T04:18:17.757Z,13.00
2018-05-06T04:20:46.824Z,13.00
2018-05-06T04:23:23.608Z,13.00
2018-05-06T04:25:52.472Z,13.00
2018-05-06T04:28:22.321Z,13.00
2018-05-06T04:30:51.452Z,13.00
2018-05-06T04:33:23.967Z,13.00
2018-05-06T04:35:54.153Z,12.90
2018-05-06T04:38:26.320Z,12.90
2018-05-06T04:40:56.464Z,12.90
2018-05-06T04:43:27.717Z,12.90
2018-05-06T04:45:56.672Z,12.90
2018-05-06T04:48:33.363Z,12.90
2018-05-06T04:51:02.299Z,12.90
2018-05-06T04:53:32.321Z,12.90
2018-05-06T04:56:01.190Z,12.80
2018-05-06T04:58:37.567Z,12.90
2018-05-06T05:01:06.400Z,12.90
2018-05-06T05:03:37.048Z,12.90
2018-05-06T05:06:06.166Z,13.00
2018-05-06T05:08:38.779Z,13.10
2018-05-06T05:11:07.758Z,13.10
2018-05-06T05:13:44.099Z,13.10
2018-05-06T05:16:14.088Z,13.10
2018-05-06T05:18:43.850Z,13.10
2018-05-06T05:21:13.504Z,13.20
2018-05-06T05:23:45.942Z,13.20
2018-05-06T05:26:14.802Z,13.20
2018-05-06T05:28:51.062Z,13.30
2018-05-06T05:31:20.120Z,13.30
2018-05-06T05:33:50.861Z,13.40
2018-05-06T05:36:19.703Z,13.40
2018-05-06T05:38:53.194Z,13.50
2018-05-06T05:41:23.069Z,13.60
2018-05-06T05:43:56.502Z,13.60
2018-05-06T05:46:25.885Z,13.60
2018-05-06T05:48:57.901Z,13.70
2018-05-06T05:51:26.642Z,13.70
2018-05-06T05:54:03.752Z,13.80
2018-05-06T05:56:32.523Z,13.80
2018-05-06T05:59:03.250Z,13.80
2018-05-06T06:01:32.468Z,13.90
2018-05-06T06:04:08.893Z,13.90
2018-05-06T06:06:37.677Z,14.00
2018-05-06T06:09:08.059Z,14.10
2018-05-06T06:11:37.011Z,14.10
2018-05-06T06:14:10.987Z,14.20
2018-05-06T06:16:39.701Z,14.20
2018-05-06T06:19:16.565Z,14.30
2018-05-06T06:21:46.335Z,14.40
2018-05-06T06:24:16.877Z,14.40
2018-05-06T06:26:45.625Z,14.50
2018-05-06T06:29:22.669Z,14.60
2018-05-06T06:31:52.523Z,14.70
2018-05-06T06:34:21.272Z,14.60
2018-05-06T06:36:52.100Z,14.80
2018-05-06T06:39:22.025Z,14.80
2018-05-06T06:41:51.590Z,15.00
2018-05-06T06:44:24.308Z,15.00
2018-05-06T06:46:53.844Z,15.20
2018-05-06T06:49:26.463Z,15.20
2018-05-06T06:51:55.504Z,15.20
2018-05-06T06:54:33.025Z,15.30
2018-05-06T06:57:01.883Z,15.40
2018-05-06T06:59:30.715Z,15.50
2018-05-06T07:01:59.879Z,15.60
2018-05-06T07:04:34.467Z,15.60
2018-05-06T07:07:03.261Z,15.70
2018-05-06T07:09:34.656Z,15.90
2018-05-06T07:12:03.870Z,15.80
2018-05-06T07:14:39.806Z,15.90
2018-05-06T07:17:08.677Z,16.00
2018-05-06T07:19:41.316Z,16.10
2018-05-06T07:22:10.870Z,16.20
2018-05-06T07:24:47.021Z,16.20
2018-05-06T07:27:15.776Z,16.30
2018-05-06T07:29:48.752Z,16.40
2018-05-06T07:32:17.553Z,16.40
2018-05-06T07:34:48.689Z,16.50
2018-05-06T07:37:18.626Z,16.60
2018-05-06T07:39:54.944Z,16.50
2018-05-06T07:42:23.707Z,16.60
2018-05-06T07:44:53.672Z,16.70
2018-05-06T07:47:22.491Z,16.80
2018-05-06T07:49:59.386Z,16.80
2018-05-06T07:52:28.157Z,16.90
2018-05-06T07:54:58.835Z,17.00
2018-05-06T07:57:27.713Z,17.10
2018-05-06T08:00:04.481Z,17.10
2018-05-06T08:02:33.253Z,17.20
2018-05-06T08:05:03.690Z,17.30
2018-05-06T08:07:33.761Z,17.40
2018-05-06T08:10:05.977Z,17.40
2018-05-06T08:12:34.857Z,17.50
2018-05-06T08:15:10.821Z,17.60
2018-05-06T08:17:39.622Z,17.60
2018-05-06T08:20:12.417Z,17.70
2018-05-06T08:22:41.457Z,17.80
2018-05-06T08:25:14.243Z,17.90
2018-05-06T08:27:43.096Z,18.00
2018-05-06T08:30:16.598Z,18.10
2018-05-06T08:32:45.518Z,18.10
2018-05-06T08:35:21.462Z,18.20
2018-05-06T08:37:50.472Z,18.30
2018-05-06T08:40:21.139Z,18.40
2018-05-06T08:42:49.937Z,18.50
2018-05-06T08:45:23.479Z,18.60
2018-05-06T08:47:52.361Z,18.80
2018-05-06T08:50:28.892Z,18.90
2018-05-06T08:52:57.973Z,19.10
2018-05-06T08:55:26.857Z,19.40
2018-05-06T08:57:55.623Z,19.60
2018-05-06T09:00:29.055Z,19.80
2018-05-06T09:02:57.817Z,20.10
2018-05-06T09:05:32.236Z,20.40
2018-05-06T09:08:01.398Z,20.50
2018-05-06T09:10:34.586Z,20.80
2018-05-06T09:13:03.456Z,21.00
2018-05-06T09:15:35.265Z,21.80
2018-05-06T09:18:04.062Z,21.80
2018-05-06T09:20:36.917Z,22.30
2018-05-06T09:23:06.164Z,22.70
2018-05-06T09:25:43.014Z,23.20
2018-05-06T09:28:11.857Z,23.50
2018-05-06T09:30:42.347Z,23.90
2018-05-06T09:33:11.210Z,24.20
2018-05-06T09:35:48.406Z,24.50
2018-05-06T09:38:17.421Z,24.70
2018-05-06T09:40:46.664Z,25.10
2018-05-06T09:43:15.441Z,25.30
2018-05-06T09:45:50.161Z,25.50
2018-05-06T09:48:19.987Z,26.00
2018-05-06T09:50:52.438Z,25.90
2018-05-06T09:53:22.353Z,26.20
2018-05-06T09:55:54.120Z,26.30
2018-05-06T09:58:22.946Z,26.30
2018-05-06T10:00:56.599Z,26.50
2018-05-06T10:03:26.155Z,26.80
2018-05-06T10:05:58.112Z,26.80
2018-05-06T10:08:27.388Z,27.00
2018-05-06T10:11:03.402Z,27.10
2018-05-06T10:13:32.273Z,27.30
2018-05-06T10:16:04.808Z,27.60
2018-05-06T10:18:33.828Z,27.60
2018-05-06T10:21:10.813Z,27.80
2018-05-06T10:23:39.634Z,28.00
2018-05-06T10:26:09.276Z,28.20
2018-05-06T10:28:38.232Z,28.20
2018-05-06T10:31:15.667Z,28.40
2018-05-06T10:33:45.510Z,28.30
2018-05-06T10:36:15.059Z,28.50
2018-05-06T10:38:44.345Z,28.60
2018-05-06T10:41:17.639Z,28.70
2018-05-06T10:43:47.541Z,28.70
2018-05-06T10:46:19.451Z,28.70
2018-05-06T10:48:48.358Z,28.60
2018-05-06T10:51:22.587Z,28.90
2018-05-06T10:53:52.195Z,29.10
2018-05-06T10:56:25.036Z,29.20
2018-05-06T10:58:54.109Z,29.20
2018-05-06T11:01:27.579Z,29.40
2018-05-06T11:03:56.534Z,29.40
2018-05-06T11:06:28.083Z,29.50
2018-05-06T11:08:57.224Z,29.50
2018-05-06T11:11:29.589Z,29.70
2018-05-06T11:13:58.490Z,29.70
2018-05-06T11:16:32.023Z,29.70
2018-05-06T11:19:00.939Z,29.70
2018-05-06T11:21:38.130Z,29.80
2018-05-06T11:24:07.812Z,30.00
2018-05-06T11:26:37.581Z,29.90
2018-05-06T11:29:07.253Z,29.40
2018-05-06T11:31:39.839Z,29.40
2018-05-06T11:34:10.204Z,29.40
2018-05-06T11:36:41.499Z,29.40
2018-05-06T11:39:10.395Z,29.40
2018-05-06T11:41:47.383Z,29.50
2018-05-06T11:44:16.173Z,29.60
2018-05-06T11:46:46.551Z,29.70
2018-05-06T11:49:16.003Z,29.90
2018-05-06T11:51:52.240Z,29.90
2018-05-06T11:54:21.259Z,29.70
2018-05-06T11:56:51.729Z,29.70
2018-05-06T11:59:20.685Z,29.80
2018-05-06T12:01:54.876Z,29.80
2018-05-06T12:04:23.899Z,30.00
2018-05-06T12:06:57.364Z,30.10
2018-05-06T12:09:26.671Z,30.10
2018-05-06T12:12:02.858Z,30.20
2018-05-06T12:14:32.426Z,30.10
2018-05-06T12:17:04.831Z,30.10
2018-05-06T12:19:33.788Z,30.00
2018-05-06T12:22:05.807Z,30.00
2018-05-06T12:24:34.970Z,30.10
2018-05-06T12:27:08.493Z,30.20
2018-05-06T12:29:37.429Z,30.20
2018-05-06T12:32:10.822Z,30.30
2018-05-06T12:34:39.712Z,30.40
2018-05-06T12:37:16.202Z,30.30
2018-05-06T12:39:45.088Z,30.40
2018-05-06T12:42:14.965Z,30.40
2018-05-06T12:44:43.923Z,30.50
2018-05-06T12:47:23.560Z,30.30
2018-05-06T12:49:52.661Z,30.30
2018-05-06T12:52:22.734Z,30.40
2018-05-06T12:54:51.689Z,30.30
2018-05-06T12:57:23.447Z,30.50
2018-05-06T12:59:52.289Z,30.40
2018-05-06T13:02:25.090Z,30.50
2018-05-06T13:04:54.479Z,30.50
2018-05-06T13:07:26.990Z,30.40
2018-05-06T13:09:55.871Z,30.50
2018-05-06T13:12:27.905Z,30.50
2018-05-06T13:14:56.899Z,30.30
2018-05-06T13:17:33.348Z,30.10
2018-05-06T13:20:02.759Z,30.00
2018-05-06T13:22:31.642Z,29.90
2018-05-06T13:25:00.521Z,30.00
2018-05-06T13:27:35.095Z,30.10
2018-05-06T13:30:04.810Z,30.10
2018-05-06T13:32:38.993Z,30.20
2018-05-06T13:35:08.236Z,30.20
2018-05-06T13:37:38.210Z,30.10
2018-05-06T13:40:07.160Z,29.80
2018-05-06T13:42:41.331Z,29.70
2018-05-06T13:45:11.075Z,29.70
2018-05-06T13:47:43.394Z,29.70
2018-05-06T13:50:13.403Z,29.80
2018-05-06T13:52:46.163Z,29.80
2018-05-06T13:55:15.666Z,29.90
2018-05-06T13:57:50.521Z,29.80
2018-05-06T14:00:19.393Z,29.90
2018-05-06T14:02:51.941Z,29.90
2018-05-06T14:05:21.153Z,29.90
2018-05-06T14:07:53.248Z,29.60
2018-05-06T14:10:35.218Z,29.60
2018-05-06T14:13:04.330Z,29.50
2018-05-06T14:15:33.173Z,29.50
2018-05-06T14:18:01.989Z,29.50
2018-05-06T14:20:31.515Z,29.50
2018-05-06T14:23:00.428Z,29.50
2018-05-06T14:25:30.223Z,29.50
2018-05-06T14:28:06.308Z,29.50
2018-05-06T14:30:35.918Z,29.60
2018-05-06T14:38:11.288Z,29.40
2018-05-06T14:40:41.381Z,29.30
2018-05-06T14:43:11.842Z,29.30
2018-05-06T14:45:41.128Z,29.30
2018-05-06T14:48:15.659Z,29.30
2018-05-06T14:50:44.856Z,29.20
2018-05-06T14:53:18.846Z,29.10
2018-05-06T14:55:48.800Z,29.10
2018-05-06T14:58:18.227Z,29.00
2018-05-06T15:00:48.162Z,29.10
2018-05-06T15:03:21.496Z,29.00
2018-05-06T15:05:50.664Z,28.80
2018-05-06T15:08:23.413Z,28.70
2018-05-06T15:10:53.023Z,28.70
2018-05-06T15:13:24.956Z,28.60
2018-05-06T15:15:53.830Z,28.60
2018-05-06T15:18:25.679Z,28.50
2018-05-06T15:21:05.931Z,28.40
2018-05-06T15:23:35.320Z,28.30
2018-05-06T15:26:05.089Z,28.10
2018-05-06T15:28:34.080Z,28.10
2018-05-06T15:31:03.654Z,28.00
2018-05-06T15:33:37.791Z,28.00
2018-05-06T15:36:06.587Z,27.90
2018-05-06T15:38:41.837Z,27.90
2018-05-06T15:41:11.809Z,27.80
2018-05-06T15:43:40.694Z,27.80
2018-05-06T15:46:09.923Z,27.80
2018-05-06T15:48:40.375Z,27.70
2018-05-06T15:51:09.325Z,27.60
2018-05-06T15:53:44.996Z,27.60
2018-05-06T15:56:13.969Z,27.50
2018-05-06T15:58:46.251Z,27.50
2018-05-06T16:01:15.486Z,27.40
2018-05-06T16:04:02.790Z,27.40
2018-05-06T16:06:31.679Z,27.20
2018-05-06T16:09:02.381Z,27.20
2018-05-06T16:11:31.261Z,27.20
2018-05-06T16:14:00.198Z,27.10
2018-05-06T16:16:29.431Z,27.00
2018-05-06T16:18:58.367Z,26.90
2018-05-06T16:21:27.366Z,26.80
2018-05-06T16:23:58.290Z,26.70
2018-05-06T16:26:27.295Z,26.60
2018-05-06T16:29:03.884Z,26.50
2018-05-06T16:31:33.100Z,26.30
2018-05-06T16:34:02.776Z,26.20
2018-05-06T16:36:31.757Z,26.20
2018-05-06T16:39:05.763Z,26.10
2018-05-06T16:41:34.752Z,26.10
2018-05-06T16:44:10.678Z,26.00
2018-05-06T16:46:40.284Z,25.90
2018-05-06T16:49:11.175Z,25.90
2018-05-06T16:51:40.451Z,25.80
2018-05-06T16:54:16.621Z,25.70
2018-05-06T16:56:45.725Z,25.70
2018-05-06T16:59:15.520Z,25.60
2018-05-06T17:01:47.473Z,25.60
2018-05-06T17:04:19.679Z,25.50
2018-05-06T17:06:48.647Z,25.40
2018-05-06T17:09:21.220Z,25.40
2018-05-06T17:11:50.334Z,25.30
2018-05-06T17:14:22.574Z,25.20
2018-05-06T17:16:51.554Z,25.20
2018-05-06T17:19:24.272Z,25.20
2018-05-06T17:21:53.185Z,25.10
2018-05-06T17:24:26.766Z,25.00
2018-05-06T17:26:56.163Z,25.00
2018-05-06T17:29:32.354Z,25.00
2018-05-06T17:32:01.677Z,24.90
2018-05-06T17:34:31.572Z,24.90
2018-05-06T17:37:02.988Z,24.80
2018-05-06T17:39:34.134Z,24.80
2018-05-06T17:42:03.128Z,24.70
2018-05-06T17:44:36.334Z,24.70
2018-05-06T17:47:06.371Z,24.70
2018-05-06T17:49:38.681Z,24.60
2018-05-06T17:52:07.626Z,24.60
2018-05-06T17:54:40.491Z,24.50
2018-05-06T17:57:10.269Z,24.40
2018-05-06T17:59:46.924Z,24.40
2018-05-06T18:02:16.150Z,24.40
2018-05-06T18:04:45.294Z,24.30
2018-05-06T18:07:14.356Z,24.30
2018-05-06T18:09:47.503Z,24.20
2018-05-06T18:12:17.292Z,24.10
2018-05-06T18:14:50.554Z,24.20
2018-05-06T18:17:19.831Z,24.10
2018-05-06T18:19:53.244Z,24.00
2018-05-06T18:22:23.585Z,23.90
2018-05-06T18:24:57.345Z,23.90
2018-05-06T18:27:26.763Z,23.80
2018-05-06T18:29:57.943Z,23.80
2018-05-06T18:32:27.609Z,23.70
2018-05-06T18:35:05.407Z,23.70
2018-05-06T18:37:34.940Z,23.60
2018-05-06T18:40:04.254Z,23.50
2018-05-06T18:42:33.475Z,23.40
2018-05-06T18:45:03.419Z,23.30
2018-05-06T18:47:32.541Z,23.30
2018-05-06T18:50:08.779Z,23.20
2018-05-06T18:52:37.864Z,23.10
2018-05-06T18:55:10.403Z,23.10
2018-05-06T18:57:40.140Z,23.00
2018-05-06T19:00:13.669Z,23.00
2018-05-06T19:02:43.394Z,22.90
2018-05-06T19:05:16.287Z,22.80
2018-05-06T19:07:46.440Z,22.70
2018-05-06T19:10:16.189Z,22.70
2018-05-06T19:12:45.195Z,22.60
2018-05-06T19:15:19.072Z,22.60
2018-05-06T19:17:48.623Z,22.50
2018-05-06T19:20:20.532Z,22.40
2018-05-06T19:22:49.664Z,22.40
2018-05-06T19:25:28.831Z,22.30
2018-05-06T19:27:57.941Z,22.30
2018-05-06T19:30:27.099Z,22.20
2018-05-06T19:32:56.494Z,22.10
2018-05-06T19:35:27.991Z,22.00
2018-05-06T19:37:57.064Z,21.90
2018-05-06T19:40:28.976Z,21.80
2018-05-06T19:42:58.891Z,21.70
2018-05-06T19:45:31.724Z,21.70
2018-05-06T19:48:01.301Z,21.60
2018-05-06T19:50:36.066Z,21.50
2018-05-06T19:53:05.215Z,21.50
2018-05-06T19:55:36.971Z,21.40
2018-05-06T19:58:06.742Z,21.30
2018-05-06T20:00:39.487Z,21.30
2018-05-06T20:03:08.938Z,21.20
2018-05-06T20:05:41.216Z,21.20
2018-05-06T20:08:10.211Z,21.10
2018-05-06T20:10:44.095Z,21.00
2018-05-06T20:13:13.404Z,21.00
2018-05-06T20:15:46.243Z,21.00
2018-05-06T20:18:15.598Z,20.90
2018-05-06T20:20:48.861Z,20.80
2018-05-06T20:23:18.958Z,20.80
2018-05-06T20:25:50.801Z,20.70
2018-05-06T20:28:20.539Z,20.60
2018-05-06T20:30:53.810Z,20.60
2018-05-06T20:33:23.040Z,20.60
2018-05-06T20:35:55.028Z,20.60
2018-05-06T20:38:24.586Z,20.50
2018-05-06T20:40:56.902Z,20.40
2018-05-06T20:43:25.810Z,20.40
2018-05-06T20:46:01.843Z,20.30
2018-05-06T20:48:31.115Z,20.20
2018-05-06T20:51:02.763Z,20.20
2018-05-06T20:53:32.453Z,20.20
2018-05-06T20:56:05.313Z,20.10
2018-05-06T20:58:35.041Z,20.10
2018-05-06T21:01:06.891Z,20.10
2018-05-06T21:03:36.590Z,20.00
2018-05-06T21:06:11.415Z,19.90
2018-05-06T21:08:40.470Z,19.90
2018-05-06T21:11:13.201Z,19.90
2018-05-06T21:13:45.152Z,19.80
2018-05-06T21:16:15.901Z,19.70
2018-05-06T21:18:45.571Z,19.70
2018-05-06T21:21:16.274Z,19.70
2018-05-06T21:23:46.090Z,19.70
2018-05-06T21:26:20.470Z,19.60
2018-05-06T21:28:49.681Z,19.60
2018-05-06T21:31:22.093Z,19.60
2018-05-06T21:33:51.456Z,19.60
2018-05-06T21:36:23.041Z,19.50
2018-05-06T21:38:52.474Z,19.50
2018-05-06T21:41:25.427Z,19.50
2018-05-06T21:43:54.495Z,19.40
2018-05-06T21:46:27.976Z,19.40
2018-05-06T21:48:58.346Z,19.40
2018-05-06T21:51:31.222Z,19.30
2018-05-06T21:54:00.050Z,19.40
2018-05-06T21:56:33.383Z,19.30
2018-05-06T21:59:02.179Z,19.30
2018-05-06T22:01:34.988Z,19.30
2018-05-06T22:04:06.531Z,19.30
2018-05-06T22:06:37.085Z,19.30
2018-05-06T22:09:07.177Z,19.30
2018-05-06T22:11:40.912Z,19.30
2018-05-06T22:14:09.867Z,19.20
2018-05-06T22:16:41.568Z,19.20
2018-05-06T22:19:11.665Z,19.10
2018-05-06T22:21:44.163Z,19.10
2018-05-06T22:24:13.848Z,19.00
2018-05-06T22:26:47.652Z,19.00
2018-05-06T22:29:16.765Z,19.00
2018-05-06T22:31:47.935Z,18.90
2018-05-06T22:34:17.021Z,18.90
2018-05-06T22:36:54.037Z,18.90
2018-05-06T22:39:22.870Z,18.80
2018-05-06T22:41:52.502Z,18.70
2018-05-06T22:44:21.350Z,18.70
2018-05-06T22:46:58.118Z,18.70
2018-05-06T22:49:26.974Z,18.60
2018-05-06T22:52:00.668Z,18.60
2018-05-06T22:54:29.489Z,18.50
2018-05-06T22:57:01.723Z,18.50
2018-05-06T22:59:31.940Z,18.50
2018-05-06T23:02:04.546Z,18.40
2018-05-06T23:04:33.444Z,18.40
2018-05-06T23:07:07.142Z,18.30
2018-05-06T23:09:36.037Z,18.20
2018-05-06T23:12:12.690Z,18.20
2018-05-06T23:14:42.658Z,18.20
2018-05-06T23:17:14.001Z,18.10
2018-05-06T23:19:44.841Z,18.10
2018-05-06T23:22:15.219Z,18.00
2018-05-06T23:24:44.467Z,18.00
2018-05-06T23:27:17.374Z,17.90
2018-05-06T23:29:46.519Z,17.80
2018-05-06T23:32:19.613Z,17.80
2018-05-06T23:34:48.712Z,17.80
2018-05-06T23:37:21.439Z,17.70
2018-05-06T23:39:50.531Z,17.70
2018-05-06T23:42:26.842Z,17.60
2018-05-06T23:44:55.685Z,17.60
2018-05-06T23:47:25.113Z,17.60
2018-05-06T23:49:54.897Z,17.50
2018-05-06T23:52:28.276Z,17.50
2018-05-06T23:54:58.862Z,17.40
2018-05-06T23:57:30.265Z,17.40
2018-05-06T23:59:59.221Z,17.40
